createdAt,value
2024-01-11T00:01:27.196Z,100189.77
2024-01-11T00:03:58.913Z,100181.42
2024-01-11T00:06:30.718Z,100175.71
2024-01-11T00:09:02.582Z,100173.95
2024-01-11T00:11:34.308Z,100176.37
2024-01-11T00:14:06.152Z,100163.50
2024-01-11T00:16:38.520Z,100163.77
2024-01-11T00:19:11.729Z,100162.12
2024-01-11T00:21:43.471Z,100162.30
2024-01-11T00:24:15.176Z,100168.92
2024-01-11T00:26:46.841Z,100162.08
2024-01-11T00:29:18.594Z,100165.03
2024-01-11T00:31:51.020Z,100166.61
2024-01-11T00:34:21.253Z,100170.27
2024-01-11T00:36:53.201Z,100164.56
2024-01-11T00:39:24.950Z,100155.64
2024-01-11T00:41:56.646Z,100149.39
2024-01-11T00:44:28.453Z,100144.35
2024-01-11T00:47:00.258Z,100141.41
2024-01-11T00:49:32.098Z,100132.52
2024-01-11T00:52:04.197Z,100124.29
2024-01-11T00:54:36.076Z,100121.95
2024-01-11T00:57:08.323Z,100117.61
2024-01-11T00:59:40.098Z,100112.20
2024-01-11T01:02:12.092Z,100109.25
2024-01-11T01:04:43.883Z,100106.80
2024-01-11T01:07:15.554Z,100105.13
2024-01-11T01:09:47.757Z,100103.88
2024-01-11T01:12:19.458Z,100106.20
2024-01-11T01:14:51.156Z,100108.45
2024-01-11T01:17:22.967Z,100113.48
2024-01-11T01:19:54.720Z,100103.88
2024-01-11T01:22:26.441Z,100101.95
2024-01-11T01:24:58.434Z,100095.13
2024-01-11T01:27:30.150Z,100081.80
2024-01-11T01:30:01.907Z,100082.06
2024-01-11T01:32:33.850Z,100092.80
2024-01-11T01:35:06.379Z,100090.90
2024-01-11T01:37:38.097Z,100087.16
2024-01-11T01:40:12.440Z,100088.73
2024-01-11T01:42:46.835Z,100095.84
2024-01-11T01:45:19.039Z,100092.62
2024-01-11T01:47:50.842Z,100096.66
2024-01-11T01:50:23.894Z,100097.28
2024-01-11T01:52:57.187Z,100098.64
2024-01-11T01:55:30.958Z,100095.70
2024-01-11T01:58:05.928Z,100101.12
2024-01-11T02:00:37.622Z,100104.81
2024-01-11T02:03:10.920Z,100111.03
2024-01-11T02:05:42.888Z,100096.39
2024-01-11T02:08:22.147Z,100082.64
2024-01-11T02:10:53.942Z,100085.73
2024-01-11T02:13:25.583Z,100090.60
2024-01-11T02:15:57.329Z,100085.83
2024-01-11T02:18:29.108Z,100095.05
2024-01-11T02:21:01.316Z,100107.83
2024-01-11T02:23:33.885Z,100106.77
2024-01-11T02:26:06.148Z,100116.14
2024-01-11T02:28:37.913Z,100112.87
2024-01-11T02:31:09.694Z,100112.88
2024-01-11T02:33:42.340Z,100098.42
2024-01-11T02:36:15.209Z,100092.59
2024-01-11T02:38:46.942Z,100094.95
2024-01-11T02:41:20.879Z,100090.71
2024-01-11T02:43:54.199Z,100100.98
2024-01-11T02:46:26.018Z,100100.80
2024-01-11T02:48:57.746Z,100083.94
2024-01-11T02:51:29.697Z,100077.23
2024-01-11T02:54:01.550Z,100065.06
2024-01-11T02:56:33.836Z,100059.80
2024-01-11T02:59:05.754Z,100056.13
2024-01-11T03:01:37.640Z,100041.52
2024-01-11T03:04:09.573Z,100023.24
2024-01-11T03:06:42.003Z,100023.26
2024-01-11T03:09:13.779Z,100018.99
2024-01-11T03:11:45.585Z,100021.88
2024-01-11T03:14:17.338Z,100029.13
2024-01-11T03:16:49.142Z,100020.23
2024-01-11T03:19:20.893Z,100010.98
2024-01-11T03:21:52.682Z,100005.11
2024-01-11T03:24:24.360Z,100000.14
2024-01-11T03:26:56.085Z,100021.71
2024-01-11T03:29:27.805Z,100031.04
2024-01-11T03:31:59.598Z,100038.30
2024-01-11T03:34:31.462Z,100043.20
2024-01-11T03:37:03.809Z,100036.95
2024-01-11T03:39:36.321Z,100037.30
2024-01-11T03:42:08.553Z,100029.92
2024-01-11T03:44:41.531Z,100015.02
2024-01-11T03:47:13.483Z,100001.02
2024-01-11T03:49:45.215Z,99979.98
2024-01-11T03:52:16.948Z,99979.58
2024-01-11T03:54:48.700Z,99970.94
2024-01-11T03:57:20.730Z,99966.40
2024-01-11T03:59:52.392Z,99950.20
2024-01-11T04:02:24.294Z,99957.52
2024-01-11T04:04:56.208Z,99963.57
2024-01-11T04:07:28.886Z,99977.59
2024-01-11T04:10:01.501Z,100002.63
2024-01-11T04:12:33.223Z,100000.81
2024-01-11T04:15:05.780Z,100002.38
2024-01-11T04:17:38.131Z,99993.38
2024-01-11T04:20:12.563Z,99999.42
2024-01-11T04:22:44.318Z,99996.90
2024-01-11T04:25:16.674Z,99979.45
2024-01-11T04:27:48.411Z,99972.13
2024-01-11T04:30:20.164Z,99955.68
2024-01-11T04:32:52.057Z,99952.09
2024-01-11T04:35:24.047Z,99953.63
2024-01-11T04:37:55.800Z,99944.70
2024-01-11T04:40:27.677Z,99939.65
2024-01-11T04:42:59.448Z,99938.71
2024-01-11T04:45:31.145Z,99940.13
2024-01-11T04:48:03.057Z,99931.57
2024-01-11T04:50:34.997Z,99910.06
2024-01-11T04:53:08.565Z,99901.46
2024-01-11T04:55:40.664Z,99883.67
2024-01-11T04:58:12.743Z,99883.27
2024-01-11T05:00:44.883Z,99867.02
2024-01-11T05:03:16.698Z,99854.10
2024-01-11T05:05:48.547Z,99843.10
2024-01-11T05:08:20.598Z,99845.41
2024-01-11T05:10:52.389Z,99856.64
2024-01-11T05:13:24.268Z,99872.48
2024-01-11T05:15:55.975Z,99868.66
2024-01-11T05:18:28.354Z,99880.59
2024-01-11T05:21:01.100Z,99905.82
2024-01-11T05:23:32.868Z,99904.59
2024-01-11T05:26:04.772Z,99903.75
2024-01-11T05:28:36.516Z,99909.41
2024-01-11T05:31:12.612Z,99909.87
2024-01-11T05:33:44.961Z,99892.08
2024-01-11T05:36:17.221Z,99896.44
2024-01-11T05:38:49.119Z,99905.66
2024-01-11T05:41:20.912Z,99901.59
2024-01-11T05:43:52.695Z,99903.70
2024-01-11T05:46:24.402Z,99907.89
2024-01-11T05:48:56.164Z,99904.81
2024-01-11T05:51:28.392Z,99905.14
2024-01-11T05:54:00.162Z,99911.80
2024-01-11T05:56:31.958Z,99913.66
2024-01-11T05:59:04.518Z,99911.60
2024-01-11T06:01:42.633Z,99915.69
2024-01-11T06:04:14.436Z,99912.04
2024-01-11T06:06:46.152Z,99899.33
2024-01-11T06:09:18.013Z,99900.61
2024-01-11T06:11:49.783Z,99899.88
2024-01-11T06:14:21.864Z,99889.61
2024-01-11T06:16:53.573Z,99892.98
2024-01-11T06:19:26.455Z,99907.21
2024-01-11T06:21:58.267Z,99919.73
2024-01-11T06:24:30.027Z,99917.78
2024-01-11T06:27:01.757Z,99921.91
2024-01-11T06:29:33.612Z,99919.14
2024-01-11T06:32:05.707Z,99904.30
2024-01-11T06:34:38.449Z,99899.32
2024-01-11T06:37:10.161Z,99881.95
2024-01-11T06:39:41.944Z,99883.04
2024-01-11T06:42:13.690Z,99872.55
2024-01-11T06:44:45.447Z,99869.69
2024-01-11T06:47:17.380Z,99873.06
2024-01-11T06:49:49.140Z,99871.88
2024-01-11T06:52:21.125Z,99875.61
2024-01-11T06:54:52.900Z,99880.41
2024-01-11T06:57:25.956Z,99887.63
2024-01-11T06:59:58.276Z,99893.02
2024-01-11T07:02:28.614Z,99892.91
2024-01-11T07:05:00.536Z,99886.79
2024-01-11T07:07:32.331Z,99872.02
2024-01-11T07:10:06.694Z,99865.95
2024-01-11T07:12:40.232Z,99874.45
2024-01-11T07:15:14.008Z,99876.92
2024-01-11T07:17:45.743Z,99865.86
2024-01-11T07:20:18.650Z,99865.36
2024-01-11T07:22:50.676Z,99869.95
2024-01-11T07:25:22.475Z,99860.45
2024-01-11T07:27:54.228Z,99861.29
2024-01-11T07:30:26.484Z,99851.90
2024-01-11T07:32:58.678Z,99844.86
2024-01-11T07:35:30.746Z,99847.13
2024-01-11T07:38:02.502Z,99848.00
2024-01-11T07:40:36.185Z,99853.59
2024-01-11T07:43:09.677Z,99856.31
2024-01-11T07:45:41.486Z,99861.99
2024-01-11T07:48:13.363Z,99861.37
2024-01-11T07:50:45.689Z,99849.23
2024-01-11T07:53:16.158Z,99844.73
2024-01-11T07:55:49.134Z,99834.80
2024-01-11T07:58:21.639Z,99834.66
2024-01-11T08:00:53.734Z,99835.12
2024-01-11T08:03:25.429Z,99846.46
2024-01-11T08:08:29.135Z,99855.06
2024-01-11T08:11:01.268Z,99847.11
2024-01-11T08:13:33.310Z,99856.05
2024-01-11T08:16:06.025Z,99862.23
2024-01-11T08:18:37.930Z,99863.73
2024-01-11T08:21:10.835Z,99859.52
2024-01-11T08:23:47.116Z,99860.80
2024-01-11T08:26:20.718Z,99855.27
2024-01-11T08:28:52.768Z,99855.50
2024-01-11T08:31:24.462Z,99863.31
2024-01-11T08:33:56.988Z,99863.11
2024-01-11T08:36:35.381Z,99867.79
2024-01-11T08:39:08.613Z,99859.17
2024-01-11T08:41:40.762Z,99857.09
2024-01-11T08:44:13.553Z,99856.09
2024-01-11T08:46:46.171Z,99857.05
2024-01-11T08:49:16.553Z,99850.00
2024-01-11T08:51:49.096Z,99838.27
2024-01-11T08:54:22.193Z,99844.17
2024-01-11T08:56:54.262Z,99843.02
2024-01-11T08:59:27.053Z,99843.77
2024-01-11T09:02:10.147Z,99862.19
2024-01-11T09:04:48.652Z,99871.55
2024-01-11T09:07:20.649Z,99875.84
2024-01-11T09:09:56.751Z,99864.98
2024-01-11T09:12:29.485Z,99852.29
2024-01-11T09:15:01.182Z,99853.32
2024-01-11T09:17:34.209Z,99864.41
2024-01-11T09:20:06.874Z,99863.48
2024-01-11T09:22:38.703Z,99870.39
2024-01-11T09:25:11.347Z,99867.39
2024-01-11T09:27:43.081Z,99858.44
2024-01-11T09:30:16.143Z,99861.59
2024-01-11T09:32:49.028Z,99861.40
2024-01-11T09:35:21.179Z,99870.77
2024-01-11T09:37:53.039Z,99869.34
2024-01-11T09:40:24.976Z,99862.78
2024-01-11T09:42:56.899Z,99864.07
2024-01-11T09:45:28.918Z,99857.61
2024-01-11T09:48:02.973Z,99859.98
2024-01-11T09:50:35.091Z,99852.80
2024-01-11T09:53:09.934Z,99860.84
2024-01-11T09:55:41.951Z,99859.56
2024-01-11T09:58:15.322Z,99853.59
2024-01-11T10:00:47.937Z,99851.67
2024-01-11T10:03:21.380Z,99848.94
2024-01-11T10:05:57.696Z,99850.77
2024-01-11T10:08:30.308Z,99848.67
2024-01-11T10:11:02.017Z,99851.78
2024-01-11T10:13:37.248Z,99848.52
2024-01-11T10:16:14.582Z,99842.67
2024-01-11T10:18:46.832Z,99842.58
2024-01-11T10:21:18.925Z,99839.23
2024-01-11T10:23:51.006Z,99826.66
2024-01-11T10:26:22.889Z,99826.54
2024-01-11T10:28:55.233Z,99824.70
2024-01-11T10:31:29.011Z,99822.86
2024-01-11T10:34:00.859Z,99823.14
2024-01-11T10:36:34.074Z,99823.82
2024-01-11T10:39:08.132Z,99818.27
2024-01-11T10:41:43.038Z,99809.98
2024-01-11T10:44:24.967Z,99806.09
2024-01-11T10:47:00.528Z,99804.08
2024-01-11T10:49:35.362Z,99798.57
2024-01-11T10:52:09.846Z,99796.30
2024-01-11T10:54:44.164Z,99784.20
2024-01-11T10:57:18.552Z,99777.70
2024-01-11T10:59:53.008Z,99778.55
2024-01-11T11:02:26.226Z,99777.92
2024-01-11T11:05:00.835Z,99765.45
2024-01-11T11:07:33.139Z,99757.70
2024-01-11T11:10:06.614Z,99763.54
2024-01-11T11:12:40.160Z,99761.39
2024-01-11T11:15:14.584Z,99764.02
2024-01-11T11:17:47.736Z,99761.63
2024-01-11T11:20:20.659Z,99762.31
2024-01-11T11:23:07.544Z,99760.91
2024-01-11T11:25:41.913Z,99754.73
2024-01-11T11:28:15.716Z,99753.10
2024-01-11T11:30:50.380Z,99745.81
2024-01-11T11:33:24.111Z,99746.80
2024-01-11T11:35:59.937Z,99745.21
2024-01-11T11:38:34.462Z,99742.13
2024-01-11T11:41:06.890Z,99738.79
2024-01-11T11:43:41.995Z,99744.02
2024-01-11T11:46:14.416Z,99746.74
2024-01-11T11:48:57.674Z,99734.63
2024-01-11T11:51:30.166Z,99732.31
2024-01-11T11:54:04.447Z,99728.17
2024-01-11T11:56:38.394Z,99723.23
2024-01-11T11:59:10.363Z,99722.65
2024-01-11T12:01:42.780Z,99724.83
2024-01-11T12:04:17.911Z,99722.13
2024-01-11T12:06:50.491Z,99714.64
2024-01-11T12:09:24.541Z,99707.35
2024-01-11T12:12:02.691Z,99700.96
2024-01-11T12:14:44.210Z,99700.57
2024-01-11T12:17:16.243Z,99692.02
2024-01-11T12:19:47.948Z,99688.14
2024-01-11T12:22:21.223Z,99687.88
2024-01-11T12:24:53.007Z,99691.72
2024-01-11T12:27:24.852Z,99690.19
2024-01-11T12:29:59.613Z,99700.02
2024-01-11T12:32:32.843Z,99693.39
2024-01-11T12:35:06.546Z,99704.27
2024-01-11T12:37:38.293Z,99705.80
2024-01-11T12:40:14.714Z,99706.67
2024-01-11T12:42:47.089Z,99708.52
2024-01-11T12:45:19.082Z,99709.98
2024-01-11T12:47:51.010Z,99702.20
2024-01-11T12:50:24.902Z,99694.96
2024-01-11T12:53:19.792Z,99694.16
2024-01-11T12:56:09.639Z,99701.05
2024-01-11T12:58:42.153Z,99698.57
2024-01-11T13:01:13.583Z,99699.55
2024-01-11T13:03:48.786Z,99700.72
2024-01-11T13:06:21.337Z,99699.68
2024-01-11T13:08:54.175Z,99701.09
2024-01-11T13:11:26.153Z,99700.74
2024-01-11T13:14:00.235Z,99711.08
2024-01-11T13:16:32.210Z,99714.96
2024-01-11T13:19:13.329Z,99715.39
2024-01-11T13:21:51.098Z,99715.02
2024-01-11T13:24:22.880Z,99709.27
2024-01-11T13:26:56.687Z,99712.20
2024-01-11T13:29:28.624Z,99712.14
2024-01-11T13:32:02.989Z,99712.92
2024-01-11T13:34:37.193Z,99712.96
2024-01-11T13:37:08.898Z,99718.79
2024-01-11T13:39:40.648Z,99719.09
2024-01-11T13:42:12.355Z,99719.63
2024-01-11T13:44:45.476Z,99716.89
2024-01-11T13:47:17.276Z,99715.10
2024-01-11T13:49:49.279Z,99717.35
2024-01-11T13:52:19.899Z,99712.14
2024-01-11T13:54:51.625Z,99707.90
2024-01-11T13:57:23.863Z,99696.21
2024-01-11T13:59:54.070Z,99692.42
2024-01-11T14:02:25.823Z,99688.27
2024-01-11T14:04:57.575Z,99692.23
2024-01-11T14:07:29.743Z,99695.59
2024-01-11T14:10:02.011Z,99689.06
2024-01-11T14:12:34.072Z,99687.61
2024-01-11T14:15:08.127Z,99684.52
2024-01-11T14:17:40.941Z,99676.05
2024-01-11T14:20:15.973Z,99675.09
2024-01-11T14:22:50.569Z,99669.89
2024-01-11T14:25:24.054Z,99669.70
2024-01-11T14:27:57.393Z,99666.67
2024-01-11T14:30:29.128Z,99659.25
2024-01-11T14:33:00.959Z,99656.90
2024-01-11T14:35:33.543Z,99657.98
2024-01-11T14:38:05.935Z,99663.09
2024-01-11T14:40:38.113Z,99664.42
2024-01-11T14:43:10.083Z,99661.04
2024-01-11T14:45:42.053Z,99668.01
2024-01-11T14:48:13.923Z,99673.25
2024-01-11T14:50:46.028Z,99671.05
2024-01-11T14:53:16.692Z,99672.10
2024-01-11T14:55:48.437Z,99677.85
2024-01-11T14:58:20.352Z,99680.83
2024-01-11T15:00:53.106Z,99678.36
2024-01-11T15:03:26.222Z,99681.50
2024-01-11T15:05:58.176Z,99686.82
2024-01-11T15:08:30.216Z,99694.37
2024-01-11T15:11:02.347Z,99700.02
2024-01-11T15:13:34.881Z,99691.08
2024-01-11T15:16:07.790Z,99686.48
2024-01-11T15:18:39.604Z,99682.59
2024-01-11T15:21:11.361Z,99681.61
2024-01-11T15:23:43.131Z,99689.10
2024-01-11T15:26:15.121Z,99687.80
2024-01-11T15:28:47.416Z,99680.25
2024-01-11T15:31:19.736Z,99679.42
2024-01-11T15:33:51.866Z,99692.09
2024-01-11T15:36:25.445Z,99697.94
2024-01-11T15:39:04.629Z,99699.00
2024-01-11T15:41:48.592Z,99695.62
2024-01-11T15:44:20.405Z,99696.14
2024-01-11T15:46:52.253Z,99689.61
2024-01-11T15:49:24.765Z,99695.74
2024-01-11T15:51:57.322Z,99692.69
2024-01-11T15:54:29.671Z,99694.23
2024-01-11T15:57:01.449Z,99694.64
2024-01-11T15:59:33.154Z,99704.98
2024-01-11T16:02:07.646Z,99701.23
2024-01-11T16:04:42.577Z,99701.27
2024-01-11T16:07:14.870Z,99706.23
2024-01-11T16:09:47.400Z,99705.17
2024-01-11T16:12:20.897Z,99706.36
2024-01-11T16:14:52.837Z,99707.55
2024-01-11T16:17:25.032Z,99707.91
2024-01-11T16:19:56.993Z,99705.65
2024-01-11T16:22:28.765Z,99703.62
2024-01-11T16:25:00.503Z,99706.38
2024-01-11T16:27:32.961Z,99700.35
2024-01-11T16:30:05.657Z,99702.52
2024-01-11T16:32:37.615Z,99702.58
2024-01-11T16:35:10.709Z,99703.02
2024-01-11T16:37:42.415Z,99708.89
2024-01-11T16:40:15.791Z,99716.64
2024-01-11T16:42:48.595Z,99726.19
2024-01-11T16:45:20.893Z,99728.80
2024-01-11T16:47:52.050Z,99739.64
2024-01-11T16:50:24.965Z,99741.55
2024-01-11T16:52:56.772Z,99740.79
2024-01-11T16:55:28.685Z,99741.41
2024-01-11T16:57:59.637Z,99738.84
2024-01-11T17:00:31.523Z,99740.83
2024-01-11T17:03:04.084Z,99738.21
2024-01-11T17:05:37.085Z,99727.17
2024-01-11T17:08:09.571Z,99729.53
2024-01-11T17:10:41.316Z,99729.08
2024-01-11T17:13:13.658Z,99722.64
2024-01-11T17:15:45.719Z,99726.41
2024-01-11T17:18:17.719Z,99732.73
2024-01-11T17:20:50.304Z,99727.11
2024-01-11T17:23:22.166Z,99729.11
2024-01-11T17:25:53.997Z,99731.70
2024-01-11T17:28:28.144Z,99730.65
2024-01-11T17:31:00.223Z,99738.84
2024-01-11T17:33:32.422Z,99737.39
2024-01-11T17:36:02.858Z,99735.92
2024-01-11T17:38:35.098Z,99740.96
2024-01-11T17:41:07.496Z,99743.16
2024-01-11T17:43:39.589Z,99742.77
2024-01-11T17:46:11.346Z,99743.98
2024-01-11T17:48:43.215Z,99743.58
2024-01-11T17:51:15.203Z,99743.15
2024-01-11T17:53:47.798Z,99741.44
2024-01-11T17:56:21.317Z,99739.15
2024-01-11T17:58:53.432Z,99740.52
2024-01-11T18:01:24.469Z,99735.38
2024-01-11T18:03:54.846Z,99729.79
2024-01-11T18:06:26.785Z,99730.27
2024-01-11T18:08:57.270Z,99735.14
2024-01-11T18:11:29.070Z,99732.78
2024-01-11T18:14:01.281Z,99732.22
2024-01-11T18:16:33.056Z,99735.45
2024-01-11T18:19:05.026Z,99738.13
2024-01-11T18:21:37.092Z,99734.80
2024-01-11T18:24:09.205Z,99730.33
2024-01-11T18:26:39.351Z,99734.23
2024-01-11T18:29:11.138Z,99732.64
2024-01-11T18:31:43.055Z,99739.85
2024-01-11T18:34:14.783Z,99742.30
2024-01-11T18:36:49.713Z,99736.37
2024-01-11T18:39:21.437Z,99728.89
2024-01-11T18:41:53.906Z,99727.02
2024-01-11T18:44:26.935Z,99727.39
2024-01-11T18:46:58.701Z,99729.77
2024-01-11T18:49:30.444Z,99732.15
2024-01-11T18:52:02.497Z,99733.79
2024-01-11T18:54:34.186Z,99733.44
2024-01-11T18:57:07.482Z,99728.91
2024-01-11T18:59:39.749Z,99728.40
2024-01-11T19:02:11.460Z,99732.11
2024-01-11T19:04:43.248Z,99733.98
2024-01-11T19:07:15.510Z,99735.13
2024-01-11T19:09:46.786Z,99735.52
2024-01-11T19:12:18.552Z,99739.50
2024-01-11T19:14:51.855Z,99740.38
2024-01-11T19:17:24.705Z,99743.92
2024-01-11T19:19:57.395Z,99744.27
2024-01-11T19:22:29.169Z,99753.61
2024-01-11T19:25:01.007Z,99752.73
2024-01-11T19:27:32.819Z,99754.98
2024-01-11T19:30:09.260Z,99757.44
2024-01-11T19:32:41.707Z,99755.73
2024-01-11T19:35:14.422Z,99750.05
2024-01-11T19:37:46.148Z,99758.39
2024-01-11T19:40:18.382Z,99761.56
2024-01-11T19:42:50.395Z,99765.15
2024-01-11T19:45:22.517Z,99776.27
2024-01-11T19:47:52.727Z,99791.37
2024-01-11T19:50:25.194Z,99793.19
2024-01-11T19:52:57.293Z,99795.98
2024-01-11T19:55:27.604Z,99799.09
2024-01-11T19:58:00.209Z,99807.59
2024-01-11T20:00:32.027Z,99813.20
2024-01-11T20:03:03.949Z,99811.55
2024-01-11T20:05:35.845Z,99809.88
2024-01-11T20:08:07.948Z,99813.48
2024-01-11T20:10:40.249Z,99814.08
2024-01-11T20:13:11.934Z,99820.20
2024-01-11T20:15:44.288Z,99823.42
2024-01-11T20:18:16.171Z,99832.67
2024-01-11T20:20:48.105Z,99835.59
2024-01-11T20:23:21.203Z,99838.70
2024-01-11T20:25:52.969Z,99844.52
2024-01-11T20:28:27.459Z,99845.84
2024-01-11T20:30:59.194Z,99849.77
2024-01-11T20:33:31.235Z,99851.50
2024-01-11T20:36:06.991Z,99855.81
2024-01-11T20:38:39.233Z,99851.99
2024-01-11T20:41:14.928Z,99857.64
2024-01-11T20:43:46.776Z,99862.27
2024-01-11T20:46:24.394Z,99863.33
2024-01-11T20:48:56.265Z,99867.56
2024-01-11T20:51:28.118Z,99871.84
2024-01-11T20:54:02.098Z,99869.39
2024-01-11T20:56:34.018Z,99867.34
2024-01-11T20:59:05.922Z,99861.15
2024-01-11T21:01:37.710Z,99867.41
2024-01-11T21:04:09.548Z,99865.29
2024-01-11T21:06:41.537Z,99868.83
2024-01-11T21:09:13.371Z,99871.51
2024-01-11T21:11:45.568Z,99877.73
2024-01-11T21:14:17.446Z,99880.54
2024-01-11T21:16:50.029Z,99883.20
2024-01-11T21:19:21.824Z,99884.84
2024-01-11T21:21:53.628Z,99883.27
2024-01-11T21:24:25.280Z,99884.17
2024-01-11T21:26:57.104Z,99885.11
2024-01-11T21:29:28.889Z,99890.45
2024-01-11T21:32:00.642Z,99893.89
2024-01-11T21:34:32.350Z,99901.96
2024-01-11T21:37:04.075Z,99905.73
2024-01-11T21:39:36.758Z,99909.11
2024-01-11T21:42:09.124Z,99912.70
2024-01-11T21:44:40.796Z,99913.70
2024-01-11T21:47:12.496Z,99910.99
2024-01-11T21:49:44.251Z,99919.58
2024-01-11T21:52:16.189Z,99918.91
2024-01-11T21:54:47.860Z,99919.02
2024-01-11T21:57:19.541Z,99924.97
2024-01-11T21:59:51.299Z,99925.90
2024-01-11T22:02:23.127Z,99928.34
2024-01-11T22:04:55.056Z,99932.98
2024-01-11T22:07:26.767Z,99934.96
2024-01-11T22:09:58.459Z,99937.73
2024-01-11T22:12:30.133Z,99940.46
2024-01-11T22:15:03.846Z,99944.14
2024-01-11T22:17:36.810Z,99937.78
2024-01-11T22:20:11.509Z,99938.23
2024-01-11T22:22:43.285Z,99940.89
2024-01-11T22:25:15.386Z,99944.95
2024-01-11T22:27:46.944Z,99942.59
2024-01-11T22:30:19.920Z,99939.81
2024-01-11T22:32:52.138Z,99941.65
2024-01-11T22:35:24.315Z,99936.21
2024-01-11T22:37:56.683Z,99932.02
2024-01-11T22:40:28.496Z,99930.83
2024-01-11T22:43:00.362Z,99934.33
2024-01-11T22:45:35.397Z,99939.14
2024-01-11T22:48:08.682Z,99938.36
2024-01-11T22:50:40.887Z,99941.66
2024-01-11T22:53:13.013Z,99943.37
2024-01-11T22:55:43.487Z,99947.59
2024-01-11T22:58:15.435Z,99953.34
2024-01-11T23:00:48.777Z,99956.95
2024-01-11T23:03:22.114Z,99964.30
2024-01-11T23:05:54.043Z,99969.98
2024-01-11T23:08:26.090Z,99972.03
2024-01-11T23:10:58.083Z,99968.05
2024-01-11T23:13:29.985Z,99966.17
2024-01-11T23:16:02.696Z,99970.71
2024-01-11T23:18:36.951Z,99973.44
2024-01-11T23:21:09.153Z,99978.14
2024-01-11T23:23:41.373Z,99980.37
2024-01-11T23:26:13.278Z,99984.07
2024-01-11T23:28:45.407Z,99982.27
2024-01-11T23:31:17.509Z,99983.48
2024-01-11T23:33:47.939Z,99984.38
2024-01-11T23:36:19.933Z,99979.75
2024-01-11T23:38:53.081Z,99982.14
2024-01-11T23:41:25.044Z,99984.80
2024-01-11T23:43:55.510Z,99989.69
2024-01-11T23:46:27.402Z,99988.87
2024-01-11T23:48:59.493Z,99990.95
2024-01-11T23:51:29.989Z,99986.14
2024-01-11T23:54:02.331Z,99983.24
2024-01-11T23:56:34.936Z,99975.76
2024-01-11T23:59:06.894Z,99976.35
